Time;durP1;ratioP1;P1;durP2;ratioP2;P2;SDS_P1;SDS_P2;PMS_P1;PMS_P2;Temp;Humidity;BMP_temperature;BMP_pressure;BME280_temperature;BME280_humidity;BME280_pressure;Samples;Min_cycle;Max_cycle;Signal;HPM_P1;HPM_P2
2021/08/18 00:01:11;;;;;;;7.90;6.18;;;15.70;99.90;;;;;;4998246;28;20733;-60
2021/08/18 00:03:40;;;;;;;7.70;6.97;;;15.80;99.90;;;;;;4999067;28;20235;-61
2021/08/18 00:06:07;;;;;;;6.95;6.25;;;15.80;99.90;;;;;;4998774;28;20477;-61
2021/08/18 00:08:34;;;;;;;6.93;6.22;;;15.90;99.90;;;;;;4998275;28;20197;-60
2021/08/18 00:11:02;;;;;;;8.00;6.90;;;15.90;99.90;;;;;;4985900;28;20302;-60
2021/08/18 00:13:29;;;;;;;15.40;7.10;;;16.00;99.90;;;;;;4983219;28;20453;-62
2021/08/18 00:15:56;;;;;;;10.70;7.33;;;16.00;99.90;;;;;;4998950;28;20442;-60
2021/08/18 00:18:23;;;;;;;7.53;6.47;;;16.00;99.90;;;;;;4995151;28;20528;-60
2021/08/18 00:20:50;;;;;;;9.97;7.43;;;16.00;99.90;;;;;;4985883;28;20450;-59
2021/08/18 00:23:17;;;;;;;7.30;6.60;;;16.10;99.90;;;;;;4993186;28;20687;-59
2021/08/18 00:25:44;;;;;;;8.47;6.77;;;16.30;99.90;;;;;;4997345;28;20438;-60
2021/08/18 00:28:12;;;;;;;9.57;6.70;;;16.20;99.90;;;;;;4985836;28;20438;-59
2021/08/18 00:30:39;;;;;;;7.30;6.60;;;16.20;99.90;;;;;;4997746;28;20681;-59
2021/08/18 00:33:07;;;;;;;7.53;6.83;;;16.30;99.90;;;;;;4991825;28;20608;-59
2021/08/18 00:35:35;;;;;;;7.90;6.80;;;16.20;99.90;;;;;;4996853;28;20435;-60
2021/08/18 00:38:02;;;;;;;7.40;6.70;;;16.00;99.90;;;;;;4997840;28;20436;-60
2021/08/18 00:40:29;;;;;;;6.87;6.13;;;16.00;99.90;;;;;;4985606;28;20441;-60
2021/08/18 00:42:56;;;;;;;8.90;6.70;;;16.00;99.90;;;;;;4983146;28;20452;-60
2021/08/18 00:45:23;;;;;;;7.57;6.77;;;16.00;99.90;;;;;;4997063;28;20441;-60
2021/08/18 00:47:52;;;;;;;7.10;6.40;;;16.00;99.90;;;;;;4998205;28;20826;-59
2021/08/18 00:50:23;;;;;;;6.00;5.50;;;16.00;99.90;;;;;;4998004;28;20690;-60
2021/08/18 00:52:51;;;;;;;8.67;6.47;;;16.00;99.90;;;;;;4997262;28;20480;-60
2021/08/18 00:55:21;;;;;;;8.37;7.07;;;16.20;99.90;;;;;;4998061;28;20460;-60
2021/08/18 00:57:48;;;;;;;9.57;7.77;;;16.20;99.90;;;;;;4982769;28;20414;-59
2021/08/18 01:00:18;;;;;;;11.40;6.90;;;16.00;99.90;;;;;;4980567;28;20453;-61
2021/08/18 01:02:46;;;;;;;10.13;7.27;;;15.90;99.90;;;;;;4978331;28;20229;-60
2021/08/18 01:05:17;;;;;;;7.77;6.73;;;15.80;99.90;;;;;;5011229;28;20437;-60
2021/08/18 01:07:46;;;;;;;8.13;6.90;;;15.70;99.90;;;;;;5026171;28;20502;-60
2021/08/18 01:10:15;;;;;;;7.20;6.40;;;15.70;99.90;;;;;;5002856;28;20730;-59
2021/08/18 01:12:42;;;;;;;7.27;6.57;;;15.80;99.90;;;;;;5017698;28;20258;-59
2021/08/18 01:15:12;;;;;;;10.25;7.22;;;15.70;99.90;;;;;;5002465;28;20604;-60
2021/08/18 01:17:44;;;;;;;10.18;6.38;;;15.60;99.90;;;;;;5005873;28;20264;-62
2021/08/18 01:20:14;;;;;;;11.50;6.32;;;15.60;99.90;;;;;;5010391;28;20222;-60
2021/08/18 01:22:42;;;;;;;8.30;7.45;;;15.80;99.90;;;;;;4990497;28;20434;-60
2021/08/18 01:25:10;;;;;;;10.40;6.87;;;15.70;99.90;;;;;;4997139;28;20536;-60
2021/08/18 01:27:47;;;;;;;11.27;7.00;;;15.70;99.90;;;;;;4997463;28;20695;-59
2021/08/18 01:30:16;;;;;;;9.97;8.53;;;15.80;99.90;;;;;;4998227;28;20518;-59
2021/08/18 01:32:46;;;;;;;8.05;6.88;;;15.60;99.90;;;;;;4996912;28;20768;-59
2021/08/18 01:35:20;;;;;;;10.43;7.22;;;15.70;99.90;;;;;;4990229;28;20472;-59
2021/08/18 01:37:47;;;;;;;7.32;6.70;;;15.60;99.90;;;;;;4997440;28;20242;-60
2021/08/18 01:40:15;;;;;;;7.70;7.00;;;15.50;99.90;;;;;;4987116;28;20211;-60
2021/08/18 01:42:42;;;;;;;11.45;7.03;;;15.50;99.90;;;;;;4980055;28;20445;-60
2021/08/18 01:45:17;;;;;;;11.13;7.57;;;15.40;99.90;;;;;;4988271;28;20432;-58
2021/08/18 01:47:44;;;;;;;8.98;7.65;;;15.40;99.90;;;;;;5008881;28;20510;-59
2021/08/18 01:50:11;;;;;;;8.32;6.57;;;15.40;99.90;;;;;;4998470;28;20520;-59
2021/08/18 01:52:39;;;;;;;8.88;7.65;;;15.50;99.90;;;;;;4990317;28;20505;-59
2021/08/18 01:55:07;;;;;;;10.45;7.63;;;15.50;99.90;;;;;;4992071;28;20318;-60
2021/08/18 01:57:34;;;;;;;8.77;6.03;;;15.50;99.90;;;;;;4979382;28;20204;-60
2021/08/18 02:00:01;;;;;;;10.52;7.63;;;15.40;99.90;;;;;;4989973;28;20206;-59
2021/08/18 02:02:29;;;;;;;8.87;7.97;;;15.40;99.90;;;;;;4986344;28;20208;-60
2021/08/18 02:04:57;;;;;;;7.90;6.78;;;15.40;99.90;;;;;;4980703;28;20549;-59
2021/08/18 02:07:24;;;;;;;7.32;6.22;;;15.50;99.90;;;;;;4994741;28;20606;-59
2021/08/18 02:09:51;;;;;;;9.65;6.70;;;15.50;99.90;;;;;;4993853;28;20269;-59
2021/08/18 02:12:18;;;;;;;9.02;7.20;;;15.40;99.90;;;;;;4984588;28;20237;-60
2021/08/18 02:14:46;;;;;;;7.30;6.25;;;15.40;99.90;;;;;;4988254;28;20438;-60
2021/08/18 02:17:13;;;;;;;9.95;6.93;;;15.40;99.90;;;;;;4997498;28;20311;-59
2021/08/18 02:19:40;;;;;;;9.25;6.90;;;15.40;99.90;;;;;;5004069;28;20226;-59
2021/08/18 02:22:07;;;;;;;9.93;7.72;;;15.40;99.90;;;;;;4996883;28;20203;-59
2021/08/18 02:24:34;;;;;;;8.52;6.88;;;15.30;99.90;;;;;;5010369;28;20226;-60
2021/08/18 02:27:01;;;;;;;14.65;8.00;;;15.20;99.90;;;;;;4999183;28;20614;-60
2021/08/18 02:29:28;;;;;;;9.00;7.60;;;15.30;99.90;;;;;;4996798;28;20710;-60
2021/08/18 02:31:56;;;;;;;7.45;6.68;;;15.00;99.90;;;;;;5010935;28;20268;-60
2021/08/18 02:34:23;;;;;;;10.98;6.65;;;14.90;99.90;;;;;;4996117;28;20525;-59
2021/08/18 02:36:50;;;;;;;7.53;6.38;;;14.80;99.90;;;;;;4996315;28;20544;-60
2021/08/18 02:39:17;;;;;;;8.35;7.28;;;14.80;99.90;;;;;;4982286;28;20198;-60
2021/08/18 02:41:44;;;;;;;9.13;6.35;;;14.80;99.90;;;;;;4996443;28;20264;-60
2021/08/18 02:44:11;;;;;;;8.48;6.00;;;14.90;99.90;;;;;;4991841;28;20278;-61
2021/08/18 02:46:38;;;;;;;8.48;7.00;;;14.70;99.90;;;;;;4986486;28;20201;-60
2021/08/18 02:49:05;;;;;;;8.95;6.57;;;14.60;99.90;;;;;;4988162;28;20253;-59
2021/08/18 02:51:32;;;;;;;12.57;6.72;;;14.60;99.90;;;;;;4993073;28;20201;-59
2021/08/18 02:53:59;;;;;;;10.95;8.00;;;14.40;99.90;;;;;;4983385;28;20206;-59
2021/08/18 02:56:26;;;;;;;8.15;6.60;;;14.40;99.90;;;;;;4988703;28;20272;-59
2021/08/18 02:58:53;;;;;;;10.70;8.15;;;14.40;99.90;;;;;;5002677;28;20244;-60
2021/08/18 03:01:20;;;;;;;11.07;7.50;;;14.20;99.90;;;;;;5004034;28;20201;-60
2021/08/18 03:03:47;;;;;;;7.88;6.28;;;14.20;99.90;;;;;;4996726;28;20436;-59
2021/08/18 03:06:14;;;;;;;7.72;6.35;;;14.00;99.90;;;;;;4995486;28;20598;-61
2021/08/18 03:08:41;;;;;;;9.35;7.07;;;14.00;99.90;;;;;;4998771;28;20488;-60
2021/08/18 03:11:08;;;;;;;10.73;8.45;;;14.00;99.90;;;;;;4998135;28;20245;-59
2021/08/18 03:13:35;;;;;;;13.57;8.73;;;14.00;99.90;;;;;;4980565;28;20388;-60
2021/08/18 03:16:02;;;;;;;9.32;7.10;;;14.00;99.90;;;;;;5005902;28;20708;-59
2021/08/18 03:18:29;;;;;;;11.30;7.75;;;13.80;99.90;;;;;;5018573;28;20205;-59
2021/08/18 03:20:57;;;;;;;15.10;8.60;;;13.80;99.90;;;;;;5018976;28;20273;-59
2021/08/18 03:23:25;;;;;;;6.90;6.20;;;13.70;99.90;;;;;;5014296;28;20206;-60
2021/08/18 03:25:52;;;;;;;8.70;6.97;;;13.70;99.90;;;;;;5020484;28;20213;-59
2021/08/18 03:28:19;;;;;;;9.95;6.90;;;13.70;99.90;;;;;;4994963;28;20249;-59
2021/08/18 03:30:46;;;;;;;9.65;7.28;;;13.60;99.90;;;;;;4999308;28;20225;-60
2021/08/18 03:33:13;;;;;;;8.27;6.30;;;13.60;99.90;;;;;;4984114;28;20229;-59
2021/08/18 03:35:40;;;;;;;8.38;6.88;;;13.60;99.90;;;;;;4995011;28;20214;-59
2021/08/18 03:38:07;;;;;;;7.10;6.25;;;13.60;99.90;;;;;;4992804;28;20248;-59
2021/08/18 03:40:34;;;;;;;11.48;7.80;;;13.60;99.90;;;;;;4998270;28;20391;-59
2021/08/18 03:43:02;;;;;;;9.60;6.68;;;13.50;99.90;;;;;;4999292;28;20268;-59
2021/08/18 03:45:29;;;;;;;15.95;7.85;;;13.50;99.90;;;;;;4998380;28;20229;-59
2021/08/18 03:47:56;;;;;;;12.27;8.07;;;13.40;99.90;;;;;;4990666;28;20252;-60
2021/08/18 03:50:23;;;;;;;12.88;7.10;;;13.20;99.90;;;;;;5003890;28;20201;-60
2021/08/18 03:52:50;;;;;;;8.23;5.65;;;13.30;99.90;;;;;;5004007;28;20533;-59
2021/08/18 03:55:18;;;;;;;12.10;7.90;;;13.30;99.90;;;;;;4998346;28;20201;-60
2021/08/18 03:57:45;;;;;;;8.45;7.20;;;13.30;99.90;;;;;;4993342;28;20248;-59
2021/08/18 04:00:13;;;;;;;12.13;8.88;;;13.20;99.90;;;;;;4992797;28;20515;-59
2021/08/18 04:02:41;;;;;;;10.30;8.32;;;13.30;99.90;;;;;;4998537;28;20240;-59
2021/08/18 04:05:09;;;;;;;9.10;7.78;;;13.40;99.90;;;;;;4991549;28;20261;-59
2021/08/18 04:07:36;;;;;;;12.18;8.23;;;13.40;99.90;;;;;;4992396;28;20241;-59
2021/08/18 04:10:05;;;;;;;12.07;7.22;;;13.40;99.90;;;;;;4998068;28;20202;-59
2021/08/18 04:12:47;;;;;;;8.38;7.22;;;13.40;99.90;;;;;;4998663;28;20229;-59
2021/08/18 04:15:15;;;;;;;9.60;7.00;;;13.40;99.90;;;;;;5005290;28;20196;-59
2021/08/18 04:17:42;;;;;;;10.75;7.18;;;13.40;99.90;;;;;;4993008;28;20241;-60
2021/08/18 04:20:09;;;;;;;10.35;8.02;;;13.40;99.90;;;;;;4991289;28;20246;-60
2021/08/18 04:22:37;;;;;;;10.25;7.97;;;13.40;99.90;;;;;;4990201;28;20248;-59
2021/08/18 04:25:04;;;;;;;9.25;8.30;;;13.30;99.90;;;;;;4997579;28;20222;-59
2021/08/18 04:27:31;;;;;;;8.77;7.65;;;13.50;99.90;;;;;;4997774;28;20332;-59
2021/08/18 04:29:58;;;;;;;10.60;8.00;;;13.60;99.90;;;;;;4984205;28;20241;-60
2021/08/18 04:32:25;;;;;;;11.48;7.95;;;13.70;99.90;;;;;;4990263;28;20366;-60
2021/08/18 04:34:52;;;;;;;15.07;7.40;;;13.70;99.90;;;;;;4991993;28;20268;-59
2021/08/18 04:37:19;;;;;;;13.55;7.45;;;13.80;99.90;;;;;;4991824;28;20244;-59
2021/08/18 04:39:46;;;;;;;11.13;8.95;;;13.90;99.90;;;;;;4991403;28;20206;-59
2021/08/18 04:42:13;;;;;;;21.98;12.35;;;14.00;99.90;;;;;;4997047;28;20202;-60
2021/08/18 04:44:40;;;;;;;14.77;11.30;;;14.10;99.90;;;;;;4997371;28;20225;-60
2021/08/18 04:47:07;;;;;;;12.13;7.57;;;14.20;99.90;;;;;;4987513;28;20201;-59
2021/08/18 04:49:34;;;;;;;12.55;10.30;;;14.30;99.90;;;;;;5003499;28;20264;-59
2021/08/18 04:52:01;;;;;;;16.00;10.75;;;14.40;99.90;;;;;;5006507;28;20197;-61
2021/08/18 04:54:28;;;;;;;13.88;9.23;;;14.40;99.90;;;;;;5002800;28;20205;-59
2021/08/18 04:56:55;;;;;;;12.63;8.30;;;14.40;99.90;;;;;;5007391;28;20198;-59
2021/08/18 04:59:22;;;;;;;12.20;8.73;;;14.60;99.90;;;;;;4988944;28;20211;-59
2021/08/18 05:01:49;;;;;;;17.05;10.18;;;14.70;99.90;;;;;;5002134;28;20201;-61
2021/08/18 05:04:17;;;;;;;13.60;9.00;;;14.70;99.90;;;;;;4996978;28;20225;-60
2021/08/18 05:06:44;;;;;;;12.02;7.45;;;14.70;99.90;;;;;;4997474;28;20237;-60
2021/08/18 05:09:11;;;;;;;12.82;7.80;;;14.80;99.90;;;;;;4997261;28;20202;-60
2021/08/18 05:11:38;;;;;;;12.75;6.63;;;14.90;99.90;;;;;;5010589;28;20412;-59
2021/08/18 05:14:05;;;;;;;9.50;7.07;;;15.00;99.90;;;;;;4997907;28;20209;-59
2021/08/18 05:16:32;;;;;;;8.35;6.30;;;15.10;99.90;;;;;;4996733;28;20252;-60
2021/08/18 05:18:59;;;;;;;11.88;8.43;;;15.40;99.90;;;;;;4998902;28;20528;-59
2021/08/18 05:21:26;;;;;;;7.63;6.80;;;15.40;99.90;;;;;;4983493;28;20333;-58
2021/08/18 05:23:53;;;;;;;8.50;5.93;;;15.60;99.90;;;;;;4990071;28;20266;-60
2021/08/18 05:26:20;;;;;;;8.13;7.35;;;15.70;99.90;;;;;;4992144;28;20206;-59
2021/08/18 05:28:47;;;;;;;7.90;6.43;;;15.80;99.90;;;;;;4978266;28;20404;-59
2021/08/18 05:31:14;;;;;;;6.83;6.10;;;15.90;99.90;;;;;;4989493;28;20283;-60
2021/08/18 05:33:41;;;;;;;9.77;7.30;;;16.10;99.90;;;;;;4996903;28;20824;-59
2021/08/18 05:36:12;;;;;;;5.77;5.10;;;16.30;99.90;;;;;;4996985;28;20424;-61
2021/08/18 05:38:39;;;;;;;7.57;6.57;;;16.20;99.90;;;;;;4997379;28;20439;-59
2021/08/18 05:41:06;;;;;;;7.53;6.13;;;16.50;99.90;;;;;;4997341;28;20494;-59
2021/08/18 05:43:33;;;;;;;7.57;5.83;;;16.60;99.90;;;;;;4995945;28;20668;-60
2021/08/18 05:46:00;;;;;;;10.17;7.00;;;16.70;99.90;;;;;;4996956;28;20676;-61
2021/08/18 05:48:27;;;;;;;6.93;6.33;;;16.90;99.90;;;;;;4983266;28;20447;-59
2021/08/18 05:50:55;;;;;;;7.43;6.13;;;17.00;99.90;;;;;;4996461;28;20439;-59
2021/08/18 05:53:22;;;;;;;7.83;5.87;;;17.20;99.90;;;;;;5004809;28;20491;-59
2021/08/18 05:55:49;;;;;;;7.47;6.30;;;17.20;99.90;;;;;;4997508;28;20415;-60
2021/08/18 05:58:17;;;;;;;7.40;5.77;;;17.30;99.90;;;;;;4995760;28;20550;-59
2021/08/18 06:00:44;;;;;;;7.10;6.33;;;17.60;99.90;;;;;;5001875;28;20437;-60
2021/08/18 06:03:12;;;;;;;10.63;6.70;;;17.90;99.90;;;;;;5000652;28;20434;-59
2021/08/18 06:05:39;;;;;;;7.33;6.63;;;18.20;99.90;;;;;;4984511;28;20817;-59
2021/08/18 06:08:07;;;;;;;6.23;5.73;;;18.40;99.90;;;;;;4993058;28;20485;-60
2021/08/18 06:10:34;;;;;;;6.60;6.10;;;18.80;99.90;;;;;;4990718;28;20439;-59
2021/08/18 06:13:02;;;;;;;10.03;7.90;;;19.10;99.90;;;;;;5001472;28;20417;-57
2021/08/18 06:15:30;;;;;;;6.23;5.70;;;19.40;99.90;;;;;;5009041;28;20790;-59
2021/08/18 06:17:57;;;;;;;7.83;7.03;;;19.70;99.90;;;;;;4992299;28;20415;-59
2021/08/18 06:20:25;;;;;;;13.80;6.53;;;20.20;99.90;;;;;;5007306;28;20414;-59
2021/08/18 06:22:52;;;;;;;7.33;6.60;;;20.50;99.90;;;;;;5042639;28;20440;-59
2021/08/18 06:25:20;;;;;;;8.27;7.47;;;20.90;99.90;;;;;;5001504;28;20461;-57
2021/08/18 06:27:47;;;;;;;7.10;6.50;;;21.50;98.40;;;;;;5004093;28;20446;-58
2021/08/18 06:30:14;;;;;;;7.27;6.67;;;22.10;97.40;;;;;;5004876;28;20509;-59
2021/08/18 06:32:41;;;;;;;7.37;6.67;;;23.50;94.90;;;;;;5003974;28;20486;-59
2021/08/18 06:35:08;;;;;;;8.20;7.40;;;23.00;93.90;;;;;;4987040;28;20485;-60
2021/08/18 06:37:38;;;;;;;7.53;6.87;;;23.60;92.80;;;;;;5009609;28;20462;-60
2021/08/18 06:40:07;;;;;;;8.77;8.03;;;24.50;91.70;;;;;;5009758;28;20754;-59
2021/08/18 06:42:34;;;;;;;7.30;6.80;;;24.90;90.40;;;;;;5002973;28;20448;-60
2021/08/18 06:45:01;;;;;;;7.63;6.80;;;25.00;89.70;;;;;;5003607;28;20474;-59
2021/08/18 06:47:28;;;;;;;7.87;7.27;;;24.90;88.70;;;;;;5036920;28;20455;-59
2021/08/18 06:49:55;;;;;;;9.77;7.53;;;25.10;87.20;;;;;;5005994;28;20448;-59
2021/08/18 06:52:22;;;;;;;8.70;7.90;;;25.80;85.30;;;;;;4996218;28;20418;-59
2021/08/18 06:54:49;;;;;;;8.23;7.40;;;26.60;83.20;;;;;;4995865;28;20704;-59
2021/08/18 06:57:16;;;;;;;7.30;6.90;;;26.60;80.50;;;;;;5006693;28;20601;-59
2021/08/18 06:59:43;;;;;;;8.40;7.73;;;26.90;80.20;;;;;;4999417;28;20633;-59
2021/08/18 07:02:10;;;;;;;9.47;7.30;;;27.50;79.30;;;;;;4999848;28;20910;-59
2021/08/18 07:04:38;;;;;;;8.87;8.17;;;28.20;76.70;;;;;;4999210;28;20502;-59
2021/08/18 07:07:05;;;;;;;9.30;8.50;;;28.80;73.80;;;;;;4999437;28;20808;-59
2021/08/18 07:09:32;;;;;;;7.07;6.47;;;28.80;71.50;;;;;;4998951;28;20990;-59
2021/08/18 07:11:59;;;;;;;8.13;7.63;;;28.80;70.60;;;;;;4999757;28;20740;-58
2021/08/18 07:14:26;;;;;;;8.07;7.47;;;28.70;69.90;;;;;;5000075;28;20435;-58
2021/08/18 07:16:53;;;;;;;8.77;8.23;;;29.30;68.30;;;;;;5000143;28;20501;-59
2021/08/18 07:19:20;;;;;;;7.80;7.20;;;29.20;67.90;;;;;;4988058;28;20454;-59
2021/08/18 07:21:47;;;;;;;8.07;7.50;;;28.90;66.60;;;;;;4997746;28;20547;-58
2021/08/18 07:24:15;;;;;;;7.17;6.77;;;29.10;65.90;;;;;;4998729;28;20656;-60
2021/08/18 07:26:42;;;;;;;8.50;7.83;;;29.10;66.40;;;;;;4985329;28;20455;-59
2021/08/18 07:29:09;;;;;;;6.60;6.20;;;29.10;65.70;;;;;;4990894;28;20497;-60
2021/08/18 07:31:36;;;;;;;8.03;7.27;;;29.10;64.80;;;;;;4981100;28;20487;-59
2021/08/18 07:34:03;;;;;;;7.00;6.60;;;29.30;64.90;;;;;;4992570;28;20505;-59
2021/08/18 07:36:30;;;;;;;7.40;7.00;;;30.00;62.20;;;;;;4993041;28;20461;-59
2021/08/18 07:38:57;;;;;;;7.43;7.03;;;29.80;61.70;;;;;;4999408;28;20666;-58
2021/08/18 07:41:25;;;;;;;7.17;6.77;;;29.80;62.40;;;;;;4998071;28;20439;-58
2021/08/18 07:43:52;;;;;;;7.63;7.23;;;30.10;61.90;;;;;;4999211;28;20575;-59
2021/08/18 07:46:19;;;;;;;6.73;6.43;;;30.70;60.60;;;;;;4999495;28;20596;-59
2021/08/18 07:48:47;;;;;;;7.30;6.73;;;30.60;60.40;;;;;;4993981;28;20483;-58
2021/08/18 07:51:14;;;;;;;6.83;6.23;;;30.60;59.50;;;;;;5002355;28;20444;-58
2021/08/18 07:53:42;;;;;;;7.47;7.00;;;30.40;59.80;;;;;;5008926;28;20665;-59
2021/08/18 07:56:09;;;;;;;7.07;6.37;;;30.60;59.20;;;;;;4998792;28;20776;-61
2021/08/18 07:58:36;;;;;;;6.43;6.13;;;31.90;57.80;;;;;;4998578;28;20445;-60
2021/08/18 08:01:04;;;;;;;6.13;5.83;;;31.50;57.00;;;;;;4993785;28;20441;-59
2021/08/18 08:03:32;;;;;;;6.40;6.07;;;30.80;58.10;;;;;;4998599;28;20415;-58
2021/08/18 08:05:59;;;;;;;6.40;6.00;;;28.80;60.60;;;;;;4998124;28;20494;-60
2021/08/18 08:08:27;;;;;;;6.70;6.30;;;27.00;66.50;;;;;;4995261;28;20577;-58
2021/08/18 08:10:54;;;;;;;7.77;6.80;;;26.70;66.40;;;;;;4979229;28;20445;-60
2021/08/18 08:13:21;;;;;;;6.70;6.23;;;27.50;66.30;;;;;;4979848;28;20483;-59
2021/08/18 08:15:48;;;;;;;6.60;6.30;;;29.50;60.70;;;;;;4979191;28;20447;-59
2021/08/18 08:18:15;;;;;;;6.90;6.40;;;30.80;58.10;;;;;;4978937;28;20503;-58
2021/08/18 08:20:43;;;;;;;7.00;6.50;;;29.80;59.00;;;;;;4980537;28;20433;-59
2021/08/18 08:23:10;;;;;;;6.50;6.20;;;29.60;59.40;;;;;;4980628;28;20444;-58
2021/08/18 08:25:37;;;;;;;7.20;6.70;;;29.60;60.00;;;;;;5005866;28;20479;-60
2021/08/18 08:28:04;;;;;;;7.87;6.13;;;29.60;59.10;;;;;;5006742;28;20439;-60
2021/08/18 08:30:32;;;;;;;6.80;6.40;;;30.80;57.70;;;;;;5006999;28;20460;-59
2021/08/18 08:32:59;;;;;;;7.10;6.70;;;31.80;55.60;;;;;;5009967;28;20436;-59
2021/08/18 08:35:26;;;;;;;6.57;6.27;;;32.80;54.70;;;;;;5005705;28;20654;-59
2021/08/18 08:37:53;;;;;;;6.77;6.37;;;32.00;54.50;;;;;;4985795;28;20503;-59
2021/08/18 08:40:21;;;;;;;6.90;6.50;;;29.30;58.80;;;;;;4994791;28;20754;-59
2021/08/18 08:42:50;;;;;;;6.20;5.90;;;27.10;63.40;;;;;;5007742;28;20500;-58
2021/08/18 08:45:18;;;;;;;5.90;5.60;;;25.60;67.20;;;;;;5006289;28;20513;-60
2021/08/18 08:47:45;;;;;;;6.53;6.00;;;24.10;71.50;;;;;;4979506;28;20444;-60
2021/08/18 08:50:14;;;;;;;5.57;5.30;;;23.50;73.40;;;;;;4992321;28;20520;-59
2021/08/18 08:52:41;;;;;;;6.50;5.90;;;24.60;71.20;;;;;;5003866;28;20439;-59
2021/08/18 08:55:09;;;;;;;5.50;5.20;;;26.00;68.10;;;;;;5002794;28;20471;-59
2021/08/18 08:57:54;;;;;;;6.47;6.07;;;27.20;64.00;;;;;;4998294;28;20494;-58
2021/08/18 09:00:22;;;;;;;5.90;5.60;;;27.00;64.40;;;;;;5007504;28;20435;-59
2021/08/18 09:03:15;;;;;;;5.93;5.63;;;25.90;66.50;;;;;;4997827;28;20414;-60
2021/08/18 09:05:44;;;;;;;6.10;5.70;;;24.80;69.30;;;;;;4997171;28;20514;-60
2021/08/18 09:08:15;;;;;;;6.63;5.83;;;24.30;71.30;;;;;;5015356;28;20473;-60
2021/08/18 09:11:12;;;;;;;5.50;5.20;;;23.80;72.90;;;;;;5006107;28;20480;-59
2021/08/18 09:13:48;;;;;;;7.80;5.23;;;23.20;74.00;;;;;;4978829;28;20483;-60
2021/08/18 09:16:21;;;;;;;5.33;5.00;;;23.00;75.60;;;;;;4992539;28;20468;-59
2021/08/18 09:18:53;;;;;;;5.50;5.00;;;22.70;75.80;;;;;;4996612;28;20464;-60
2021/08/18 09:21:37;;;;;;;6.00;5.67;;;22.40;75.90;;;;;;4997187;28;21134;-59
2021/08/18 09:24:16;;;;;;;5.93;5.53;;;23.00;75.50;;;;;;4988282;28;20406;-60
2021/08/18 09:26:51;;;;;;;6.13;5.83;;;24.30;72.20;;;;;;5008765;28;20525;-60
2021/08/18 09:29:45;;;;;;;5.17;4.90;;;24.80;71.20;;;;;;4996638;28;20497;-59
2021/08/18 09:32:20;;;;;;;5.50;5.30;;;24.60;70.40;;;;;;4991612;28;20458;-61
2021/08/18 09:35:02;;;;;;;4.97;4.67;;;24.60;70.90;;;;;;5006277;28;20412;-60
2021/08/18 09:37:31;;;;;;;5.07;4.87;;;24.90;71.60;;;;;;4997102;28;20406;-61
2021/08/18 09:39:59;;;;;;;5.33;5.13;;;24.80;70.20;;;;;;4996260;28;20505;-59
2021/08/18 09:42:32;;;;;;;5.40;5.13;;;24.60;69.50;;;;;;4997352;28;20464;-60
2021/08/18 09:45:18;;;;;;;5.60;5.20;;;24.70;70.00;;;;;;4996969;28;20691;-59
2021/08/18 09:48:06;;;;;;;4.80;4.60;;;24.70;70.60;;;;;;4985585;28;20454;-60
2021/08/18 09:51:00;;;;;;;5.20;5.00;;;24.70;70.00;;;;;;4988593;28;20406;-59
2021/08/18 09:53:42;;;;;;;6.13;5.70;;;25.40;67.60;;;;;;4994998;28;20915;-59
2021/08/18 09:56:14;;;;;;;5.10;4.90;;;25.50;68.30;;;;;;4990184;28;20418;-59
2021/08/18 09:58:47;;;;;;;5.43;5.23;;;25.40;68.10;;;;;;4996818;28;20410;-60
2021/08/18 10:01:16;;;;;;;5.33;4.83;;;25.00;69.20;;;;;;4991639;28;20437;-59
2021/08/18 10:03:49;;;;;;;4.73;4.50;;;24.90;69.50;;;;;;4992557;28;20439;-57
2021/08/18 10:06:17;;;;;;;4.67;4.47;;;24.70;70.30;;;;;;4993537;28;20513;-60
2021/08/18 10:08:49;;;;;;;5.23;4.93;;;24.50;70.60;;;;;;4995201;28;20481;-60
2021/08/18 10:11:17;;;;;;;5.40;5.00;;;24.60;69.90;;;;;;4996343;28;20414;-60
2021/08/18 10:13:44;;;;;;;5.30;5.00;;;24.60;70.40;;;;;;4996721;28;20440;-59
2021/08/18 10:16:13;;;;;;;5.00;4.70;;;24.40;72.00;;;;;;4996474;28;20418;-59
2021/08/18 10:18:46;;;;;;;4.60;4.30;;;24.10;72.00;;;;;;5001664;28;20536;-59
2021/08/18 10:21:17;;;;;;;4.77;4.47;;;24.00;74.40;;;;;;5000456;28;20410;-59
2021/08/18 10:23:47;;;;;;;5.33;5.13;;;24.20;72.80;;;;;;4999973;28;20446;-59
2021/08/18 10:26:34;;;;;;;5.60;5.30;;;24.30;73.10;;;;;;5004633;28;20782;-58
2021/08/18 10:29:04;;;;;;;4.70;4.50;;;24.20;73.40;;;;;;5006863;28;20811;-61
2021/08/18 10:31:41;;;;;;;5.30;5.00;;;23.90;73.00;;;;;;5003912;28;20497;-59
2021/08/18 10:34:23;;;;;;;5.90;5.27;;;23.40;74.50;;;;;;5000110;28;20406;-59
2021/08/18 10:36:55;;;;;;;4.90;4.67;;;22.80;75.80;;;;;;5003066;28;20520;-60
2021/08/18 10:39:25;;;;;;;5.80;5.10;;;22.40;77.10;;;;;;5001947;28;20608;-59
2021/08/18 10:42:03;;;;;;;8.30;5.33;;;22.60;77.80;;;;;;4997346;28;20410;-61
2021/08/18 10:44:49;;;;;;;4.87;4.60;;;23.00;75.80;;;;;;5000962;28;20435;-59
2021/08/18 10:47:21;;;;;;;4.53;4.33;;;22.80;76.50;;;;;;5004609;28;21063;-60
2021/08/18 10:50:14;;;;;;;4.60;4.20;;;22.80;76.40;;;;;;5002649;28;20476;-59
2021/08/18 10:52:42;;;;;;;4.07;3.97;;;22.90;76.80;;;;;;5000753;28;20416;-60
2021/08/18 10:55:18;;;;;;;4.07;3.87;;;23.30;76.00;;;;;;5009462;28;20430;-60
2021/08/18 10:57:53;;;;;;;4.40;4.27;;;23.80;74.50;;;;;;4994125;28;20497;-60
2021/08/18 11:00:36;;;;;;;4.50;4.30;;;24.20;73.50;;;;;;4999759;28;20454;-60
2021/08/18 11:03:22;;;;;;;4.20;4.00;;;24.60;72.90;;;;;;5000158;28;20766;-59
2021/08/18 11:05:51;;;;;;;4.40;4.10;;;24.90;70.30;;;;;;4999902;28;20465;-59
2021/08/18 11:08:20;;;;;;;4.13;4.00;;;24.80;70.70;;;;;;4999263;28;20398;-60
2021/08/18 11:10:55;;;;;;;4.50;4.23;;;24.20;72.30;;;;;;4988195;28;20745;-60
2021/08/18 11:13:42;;;;;;;4.10;3.90;;;24.10;73.00;;;;;;4999022;28;20493;-60
2021/08/18 11:16:30;;;;;;;4.37;4.17;;;24.10;72.70;;;;;;4998943;28;20447;-59
2021/08/18 11:19:06;;;;;;;3.90;3.80;;;23.80;73.30;;;;;;5000111;28;20402;-59
2021/08/18 11:21:35;;;;;;;3.97;3.87;;;23.50;75.00;;;;;;4996360;28;20754;-60
2021/08/18 11:24:12;;;;;;;4.20;4.00;;;23.50;74.80;;;;;;4988900;28;20486;-60
2021/08/18 11:26:41;;;;;;;4.17;4.07;;;23.70;75.10;;;;;;4998560;28;20463;-60
2021/08/18 11:29:19;;;;;;;4.47;4.27;;;24.10;74.50;;;;;;4998420;28;20484;-60
2021/08/18 11:31:49;;;;;;;4.40;4.20;;;24.10;73.70;;;;;;4998923;28;20471;-59
2021/08/18 11:34:25;;;;;;;4.30;4.10;;;24.40;73.30;;;;;;4999371;28;20435;-58
2021/08/18 11:37:05;;;;;;;4.13;3.93;;;24.40;73.70;;;;;;4998307;28;20421;-60
2021/08/18 11:39:35;;;;;;;5.00;4.70;;;24.60;72.60;;;;;;4999012;28;20410;-60
2021/08/18 11:42:19;;;;;;;4.70;4.50;;;24.80;73.40;;;;;;5015021;28;20424;-60
2021/08/18 11:44:58;;;;;;;5.27;4.77;;;24.70;72.50;;;;;;4995885;28;20746;-58
2021/08/18 11:47:28;;;;;;;4.87;4.67;;;24.40;73.10;;;;;;4984102;28;20470;-61
2021/08/18 11:49:56;;;;;;;4.40;4.20;;;24.60;72.50;;;;;;5002619;28;20556;-59
2021/08/18 11:52:24;;;;;;;4.80;4.60;;;24.90;72.60;;;;;;5000502;28;20440;-58
2021/08/18 11:54:59;;;;;;;4.40;4.20;;;24.80;72.40;;;;;;5000585;28;20414;-60
2021/08/18 11:57:26;;;;;;;4.77;4.47;;;24.20;72.70;;;;;;5005688;28;20657;-59
2021/08/18 11:59:55;;;;;;;5.10;4.63;;;23.90;73.00;;;;;;4998427;28;20954;-59
2021/08/18 12:02:24;;;;;;;4.83;4.63;;;24.10;73.50;;;;;;4998535;28;20444;-58
2021/08/18 12:04:55;;;;;;;4.30;4.10;;;23.90;73.10;;;;;;4998280;28;21059;-58
2021/08/18 12:07:22;;;;;;;4.30;4.10;;;23.90;74.20;;;;;;4998503;28;20487;-59
2021/08/18 12:10:11;;;;;;;4.50;4.30;;;24.00;73.90;;;;;;4984444;28;20414;-60
2021/08/18 12:12:38;;;;;;;4.33;4.13;;;24.10;73.70;;;;;;4998375;28;20465;-58
2021/08/18 12:15:10;;;;;;;4.40;4.20;;;24.20;73.10;;;;;;4985020;28;20502;-60
2021/08/18 12:17:45;;;;;;;4.80;4.40;;;24.10;73.10;;;;;;4997437;28;20754;-59
2021/08/18 12:20:30;;;;;;;4.40;4.20;;;24.10;73.70;;;;;;5011411;28;20435;-59
2021/08/18 12:22:59;;;;;;;4.47;4.07;;;24.40;72.70;;;;;;4983916;28;20454;-59
2021/08/18 12:25:31;;;;;;;4.77;4.50;;;24.50;71.80;;;;;;4997801;28;20410;-60
2021/08/18 12:28:15;;;;;;;4.07;3.90;;;24.30;72.50;;;;;;4985485;28;20436;-59
2021/08/18 12:30:59;;;;;;;4.13;3.93;;;24.20;73.40;;;;;;4986245;28;20598;-59
2021/08/18 12:33:28;;;;;;;8.40;4.73;;;23.90;73.50;;;;;;4997624;28;20410;-60
2021/08/18 12:36:10;;;;;;;3.77;3.60;;;24.00;73.90;;;;;;4998273;28;20425;-59
2021/08/18 12:38:52;;;;;;;3.90;3.70;;;24.10;74.50;;;;;;5011248;28;20466;-59
2021/08/18 12:41:28;;;;;;;4.40;4.10;;;24.20;74.60;;;;;;5007936;28;20417;-60
2021/08/18 12:44:07;;;;;;;4.43;4.13;;;24.30;74.20;;;;;;5011741;28;20445;-60
2021/08/18 12:46:36;;;;;;;4.10;3.97;;;24.20;74.00;;;;;;4985777;28;20558;-59
2021/08/18 12:49:26;;;;;;;4.70;4.30;;;24.10;74.80;;;;;;4982972;28;20414;-59
2021/08/18 12:51:57;;;;;;;4.27;4.07;;;23.70;75.10;;;;;;4997002;28;20435;-60
2021/08/18 12:54:25;;;;;;;4.87;4.67;;;23.20;76.40;;;;;;4985108;28;20433;-59
2021/08/18 12:56:54;;;;;;;4.77;4.47;;;23.00;77.50;;;;;;4997360;28;20469;-59
2021/08/18 12:59:21;;;;;;;5.27;4.93;;;23.00;76.80;;;;;;4983500;28;20460;-60